Time;durP1;ratioP1;P1;durP2;ratioP2;P2;SDS_P1;SDS_P2;PMS_P1;PMS_P2;Temp;Humidity;BMP_temperature;BMP_pressure;BME280_temperature;BME280_humidity;BME280_pressure;Samples;Min_cycle;Max_cycle;Signal;HPM_P1;HPM_P2
2022/06/16 00:01:13;;;;;;;6.75;4.70;;;;;;;;;;5088325;28;20636;-75
2022/06/16 00:03:40;;;;;;;6.38;4.80;;;;;;;;;;5087680;28;20225;-75
2022/06/16 00:06:08;;;;;;;4.43;4.03;;;;;;;;;;5087951;28;20201;-75
2022/06/16 00:08:35;;;;;;;5.47;4.80;;;;;;;;;;5087966;28;20658;-75
2022/06/16 00:11:19;;;;;;;5.57;4.85;;;;;;;;;;5088196;28;20205;-76
2022/06/16 00:13:48;;;;;;;6.00;5.18;;;;;;;;;;5070127;28;20264;-75
2022/06/16 00:16:15;;;;;;;4.90;4.50;;;;;;;;;;5067616;28;20201;-75
2022/06/16 00:18:43;;;;;;;4.78;4.25;;;;;;;;;;5067606;28;20735;-74
2022/06/16 00:21:10;;;;;;;4.95;4.45;;;;;;;;;;5067568;28;20205;-75
2022/06/16 00:23:38;;;;;;;5.35;4.75;;;;;;;;;;5066627;28;20221;-75
2022/06/16 00:26:17;;;;;;;5.10;4.60;;;;;;;;;;5069075;28;20278;-75
2022/06/16 00:28:48;;;;;;;5.90;5.32;;;;;;;;;;5086435;28;20568;-75
2022/06/16 00:31:17;;;;;;;6.28;4.75;;;;;;;;;;5087279;28;20219;-75
2022/06/16 00:33:45;;;;;;;6.13;5.13;;;;;;;;;;5087055;28;20237;-74
2022/06/16 00:36:12;;;;;;;5.32;4.88;;;;;;;;;;5087774;28;20239;-74
2022/06/16 00:38:40;;;;;;;5.35;4.85;;;;;;;;;;5086967;28;20386;-76
2022/06/16 00:41:08;;;;;;;5.20;4.80;;;;;;;;;;5088066;28;20199;-75
2022/06/16 00:43:35;;;;;;;5.97;5.18;;;;;;;;;;5086698;28;20255;-76
2022/06/16 00:46:04;;;;;;;6.80;5.45;;;;;;;;;;5086567;28;20728;-76
2022/06/16 00:48:41;;;;;;;4.90;4.40;;;;;;;;;;5086753;28;20730;-76
2022/06/16 00:51:18;;;;;;;5.15;4.75;;;;;;;;;;5088106;28;20200;-75
2022/06/16 00:53:46;;;;;;;7.25;4.95;;;;;;;;;;5086765;28;20282;-75
2022/06/16 00:56:17;;;;;;;5.80;5.30;;;;;;;;;;5087284;28;20724;-76
2022/06/16 00:58:46;;;;;;;6.38;5.18;;;;;;;;;;5087133;28;20242;-76
2022/06/16 01:01:14;;;;;;;7.00;6.18;;;;;;;;;;5087619;28;20625;-75
2022/06/16 01:06:30;;;;;;;6.38;4.93;;;;;;;;;;5086944;28;20628;-76
2022/06/16 01:09:01;;;;;;;6.87;4.63;;;;;;;;;;5087161;28;20254;-75
2022/06/16 01:14:32;;;;;;;6.23;5.27;;;;;;;;;;5087072;28;20688;-76
2022/06/16 01:17:03;;;;;;;5.47;5.03;;;;;;;;;;5086740;28;20205;-76
2022/06/16 01:19:30;;;;;;;5.63;5.13;;;;;;;;;;5069226;28;20204;-75
2022/06/16 01:22:24;;;;;;;5.38;4.88;;;;;;;;;;5086344;28;20250;-76
2022/06/16 01:25:06;;;;;;;7.23;5.10;;;;;;;;;;5045593;28;20663;-76
2022/06/16 01:28:00;;;;;;;5.13;4.70;;;;;;;;;;5068950;28;20641;-76
2022/06/16 01:30:32;;;;;;;5.10;4.70;;;;;;;;;;5056277;28;20254;-76
2022/06/16 01:33:16;;;;;;;6.73;4.97;;;;;;;;;;5084321;28;20240;-76
2022/06/16 01:35:51;;;;;;;5.77;5.20;;;;;;;;;;5086808;28;20278;-75
2022/06/16 01:38:21;;;;;;;5.97;5.17;;;;;;;;;;5074648;28;20223;-76
2022/06/16 01:41:07;;;;;;;5.57;4.90;;;;;;;;;;5087357;28;20197;-76
2022/06/16 01:43:37;;;;;;;6.57;5.17;;;;;;;;;;5087053;28;20274;-76
2022/06/16 01:46:11;;;;;;;6.30;5.37;;;;;;;;;;5087439;28;20266;-76
2022/06/16 01:48:42;;;;;;;7.37;5.50;;;;;;;;;;5086877;28;20212;-76
2022/06/16 01:51:13;;;;;;;6.47;5.80;;;;;;;;;;5086795;28;20196;-76
2022/06/16 01:53:46;;;;;;;5.70;5.20;;;;;;;;;;5086359;28;20285;-76
2022/06/16 01:56:20;;;;;;;5.43;4.93;;;;;;;;;;5066842;28;20559;-76
2022/06/16 01:58:51;;;;;;;7.00;5.63;;;;;;;;;;5068786;28;20209;-76
2022/06/16 02:01:20;;;;;;;6.67;5.87;;;;;;;;;;5070399;28;20198;-75
2022/06/16 02:03:51;;;;;;;10.73;7.80;;;;;;;;;;5069656;28;20283;-76
2022/06/16 02:06:22;;;;;;;6.30;5.70;;;;;;;;;;5071323;28;20664;-76
2022/06/16 02:08:53;;;;;;;7.03;5.73;;;;;;;;;;5086524;28;20201;-76
2022/06/16 02:11:23;;;;;;;6.93;6.30;;;;;;;;;;5084801;28;20252;-76
2022/06/16 02:13:53;;;;;;;6.10;5.50;;;;;;;;;;5069616;28;20495;-76
2022/06/16 02:16:23;;;;;;;6.67;6.00;;;;;;;;;;5070317;28;20205;-76
2022/06/16 02:18:52;;;;;;;8.83;6.33;;;;;;;;;;5069849;28;20209;-75
2022/06/16 02:21:36;;;;;;;5.57;5.00;;;;;;;;;;5052799;28;20201;-75
2022/06/16 02:24:04;;;;;;;5.17;4.67;;;;;;;;;;5075350;28;20370;-76
2022/06/16 02:26:33;;;;;;;6.73;5.30;;;;;;;;;;5090428;28;20205;-74
2022/06/16 02:29:01;;;;;;;7.20;5.50;;;;;;;;;;5084397;28;20209;-75
2022/06/16 02:31:37;;;;;;;7.87;5.73;;;;;;;;;;5089336;28;20253;-76
2022/06/16 02:34:31;;;;;;;6.40;4.97;;;;;;;;;;5088685;28;20658;-76
2022/06/16 02:37:14;;;;;;;5.17;4.67;;;;;;;;;;5085789;28;20212;-76
2022/06/16 02:39:50;;;;;;;6.30;4.67;;;;;;;;;;5089212;28;20242;-77
2022/06/16 02:42:28;;;;;;;5.93;5.03;;;;;;;;;;5089407;28;20222;-76
2022/06/16 02:45:05;;;;;;;6.17;5.40;;;;;;;;;;5088804;28;20204;-76
2022/06/16 02:47:48;;;;;;;6.00;5.40;;;;;;;;;;5089588;28;20271;-76
2022/06/16 02:50:26;;;;;;;5.47;4.97;;;;;;;;;;5089905;28;20205;-77
2022/06/16 02:53:00;;;;;;;5.03;4.63;;;;;;;;;;5088585;28;20221;-77
2022/06/16 02:55:37;;;;;;;6.10;5.40;;;;;;;;;;5089482;28;20228;-77
2022/06/16 02:58:05;;;;;;;6.23;5.40;;;;;;;;;;5089522;28;20246;-77
2022/06/16 03:00:36;;;;;;;5.70;5.20;;;;;;;;;;5089837;28;20193;-76
2022/06/16 03:03:22;;;;;;;5.47;4.97;;;;;;;;;;5059546;28;20267;-76
2022/06/16 03:05:51;;;;;;;5.97;5.40;;;;;;;;;;5054004;28;20216;-76
2022/06/16 03:08:19;;;;;;;7.73;5.40;;;;;;;;;;5070965;28;20207;-73
2022/06/16 03:10:52;;;;;;;5.20;4.70;;;;;;;;;;5069259;28;20559;-76
2022/06/16 03:13:21;;;;;;;5.20;4.70;;;;;;;;;;5073097;28;20221;-76
2022/06/16 03:15:49;;;;;;;5.57;4.70;;;;;;;;;;5089376;28;20235;-77
2022/06/16 03:18:17;;;;;;;6.27;4.60;;;;;;;;;;5089931;28;20292;-76
2022/06/16 03:20:44;;;;;;;6.13;5.07;;;;;;;;;;5072474;28;20216;-76
2022/06/16 03:23:12;;;;;;;6.00;5.30;;;;;;;;;;5077704;28;20881;-76
2022/06/16 03:25:40;;;;;;;5.60;5.10;;;;;;;;;;5089153;28;20670;-76
2022/06/16 03:28:08;;;;;;;5.43;4.93;;;;;;;;;;5088144;28;20200;-76
2022/06/16 03:30:36;;;;;;;5.13;4.50;;;;;;;;;;5088807;28;20263;-76
2022/06/16 03:33:03;;;;;;;5.07;4.57;;;;;;;;;;5088289;28;20298;-76
2022/06/16 03:35:31;;;;;;;5.40;4.90;;;;;;;;;;5088722;28;20232;-73
2022/06/16 03:38:15;;;;;;;5.27;4.70;;;;;;;;;;5082900;28;20254;-75
2022/06/16 03:40:42;;;;;;;4.97;4.57;;;;;;;;;;5070550;28;20692;-74
2022/06/16 03:43:09;;;;;;;5.77;5.20;;;;;;;;;;5070094;28;20251;-76
2022/06/16 03:45:37;;;;;;;7.83;4.80;;;;;;;;;;5088725;28;20209;-74
2022/06/16 03:48:05;;;;;;;5.30;4.80;;;;;;;;;;5081701;28;20872;-74
2022/06/16 03:50:33;;;;;;;4.93;4.53;;;;;;;;;;5086209;28;20201;-75
2022/06/16 03:53:00;;;;;;;5.60;4.70;;;;;;;;;;5087082;28;20702;-74
2022/06/16 03:55:28;;;;;;;5.17;4.67;;;;;;;;;;5088934;28;20451;-76
2022/06/16 03:57:55;;;;;;;7.07;5.47;;;;;;;;;;5088791;28;20211;-75
2022/06/16 04:00:23;;;;;;;5.70;5.10;;;;;;;;;;5087414;28;20638;-76
2022/06/16 04:05:37;;;;;;;4.40;4.00;;;;;;;;;;5087968;28;20200;-76
2022/06/16 04:08:05;;;;;;;4.43;4.03;;;;;;;;;;5069993;28;20212;-76
2022/06/16 04:10:33;;;;;;;5.77;4.10;;;;;;;;;;5080739;28;20215;-76
2022/06/16 04:13:00;;;;;;;8.10;5.00;;;;;;;;;;5067321;28;20233;-76
2022/06/16 04:15:28;;;;;;;5.77;4.30;;;;;;;;;;5068344;28;20556;-74
2022/06/16 04:17:55;;;;;;;4.37;3.97;;;;;;;;;;5050429;28;20710;-76
2022/06/16 04:20:22;;;;;;;5.77;4.07;;;;;;;;;;5068322;28;20202;-77
2022/06/16 04:22:51;;;;;;;4.83;4.30;;;;;;;;;;5083214;28;20265;-74
2022/06/16 04:25:19;;;;;;;3.92;3.63;;;;;;;;;;5086105;28;20228;-77
2022/06/16 04:27:47;;;;;;;3.85;3.53;;;;;;;;;;5082733;28;20208;-76
2022/06/16 04:30:15;;;;;;;4.40;3.80;;;;;;;;;;5087146;28;20204;-77
2022/06/16 04:32:43;;;;;;;3.75;3.38;;;;;;;;;;5087881;28;20244;-76
2022/06/16 04:35:11;;;;;;;8.75;3.67;;;;;;;;;;5087638;28;20229;-75
2022/06/16 04:37:38;;;;;;;3.92;3.55;;;;;;;;;;5086483;28;20648;-76
2022/06/16 04:40:06;;;;;;;5.43;3.65;;;;;;;;;;5087219;28;20197;-75
2022/06/16 04:42:33;;;;;;;4.13;3.55;;;;;;;;;;5087784;28;20224;-75
2022/06/16 04:45:01;;;;;;;6.13;4.45;;;;;;;;;;5076129;28;20213;-75
2022/06/16 04:47:28;;;;;;;4.03;3.63;;;;;;;;;;5067874;28;20789;-75
2022/06/16 04:49:56;;;;;;;4.78;3.53;;;;;;;;;;5067083;28;20239;-75
2022/06/16 04:52:23;;;;;;;3.97;3.38;;;;;;;;;;5067046;28;20256;-75
2022/06/16 04:54:51;;;;;;;3.90;3.40;;;;;;;;;;5066784;28;20229;-76
2022/06/16 04:57:26;;;;;;;4.82;3.45;;;;;;;;;;5067469;28;20262;-74
2022/06/16 04:59:53;;;;;;;4.35;3.30;;;;;;;;;;5067370;28;20672;-74
2022/06/16 05:02:41;;;;;;;6.28;3.22;;;;;;;;;;5065494;28;20584;-75
2022/06/16 05:05:08;;;;;;;5.05;3.05;;;;;;;;;;5066935;28;20279;-76
2022/06/16 05:07:36;;;;;;;4.88;3.13;;;;;;;;;;5078663;28;20200;-76
2022/06/16 05:10:03;;;;;;;3.50;3.20;;;;;;;;;;5086781;28;20203;-73
2022/06/16 05:12:30;;;;;;;3.08;2.78;;;;;;;;;;5087703;28;20232;-77
2022/06/16 05:14:58;;;;;;;3.75;2.65;;;;;;;;;;5086651;28;20221;-76
2022/06/16 05:17:25;;;;;;;3.60;3.10;;;;;;;;;;5087140;28;20196;-73
2022/06/16 05:19:52;;;;;;;4.80;3.00;;;;;;;;;;5072247;28;20201;-75
2022/06/16 05:22:20;;;;;;;4.40;3.08;;;;;;;;;;5087155;28;20256;-76
2022/06/16 05:24:47;;;;;;;3.90;2.70;;;;;;;;;;5086614;28;20613;-74
2022/06/16 05:27:15;;;;;;;3.20;2.95;;;;;;;;;;5086658;28;20190;-74
2022/06/16 05:29:43;;;;;;;3.40;2.78;;;;;;;;;;5087996;28;20239;-74
2022/06/16 05:32:11;;;;;;;3.28;2.78;;;;;;;;;;5087820;28;20387;-76
2022/06/16 05:34:39;;;;;;;2.70;2.30;;;;;;;;;;5090632;28;20737;-76
2022/06/16 05:37:06;;;;;;;6.80;2.50;;;;;;;;;;5077723;28;20213;-75
2022/06/16 05:39:35;;;;;;;3.42;2.65;;;;;;;;;;5090723;28;20229;-76
2022/06/16 05:42:02;;;;;;;2.92;2.35;;;;;;;;;;5090650;28;20271;-76
2022/06/16 05:44:30;;;;;;;3.75;2.42;;;;;;;;;;5090104;28;20205;-75
2022/06/16 05:46:57;;;;;;;4.05;2.60;;;;;;;;;;5090877;28;20579;-75
2022/06/16 05:49:25;;;;;;;3.25;2.30;;;;;;;;;;5072826;28;20236;-76
2022/06/16 05:51:52;;;;;;;2.38;2.15;;;;;;;;;;5089511;28;20333;-76
2022/06/16 05:54:19;;;;;;;3.88;2.20;;;;;;;;;;5069913;28;20294;-75
2022/06/16 05:56:47;;;;;;;4.00;2.30;;;;;;;;;;5070153;28;20238;-77
2022/06/16 05:59:15;;;;;;;3.70;2.63;;;;;;;;;;5069962;28;20205;-76
2022/06/16 06:01:43;;;;;;;3.90;2.13;;;;;;;;;;5070037;28;20258;-76
2022/06/16 06:04:10;;;;;;;3.15;2.70;;;;;;;;;;5069803;28;20235;-75
2022/06/16 06:06:38;;;;;;;3.13;2.53;;;;;;;;;;5073391;28;20210;-76
2022/06/16 06:17:24;;;;;;;4.95;2.70;;;;;;;;;;5090246;28;20651;-75
2022/06/16 06:19:52;;;;;;;4.07;3.20;;;;;;;;;;5090127;28;20213;-76
2022/06/16 06:22:24;;;;;;;4.60;3.15;;;;;;;;;;5089438;28;20256;-75
2022/06/16 06:24:54;;;;;;;4.95;3.10;;;;;;;;;;5082610;28;20204;-75
2022/06/16 06:27:24;;;;;;;4.47;3.30;;;;;;;;;;5088936;28;20212;-77
2022/06/16 06:29:51;;;;;;;3.75;3.30;;;;;;;;;;5089950;28;20678;-77
2022/06/16 06:32:20;;;;;;;5.20;3.30;;;;;;;;;;5089721;28;20221;-76
2022/06/16 06:34:47;;;;;;;5.63;3.28;;;;;;;;;;5089183;28;20204;-76
2022/06/16 06:37:16;;;;;;;4.45;3.22;;;;;;;;;;5089619;28;20220;-76
2022/06/16 06:39:44;;;;;;;4.30;2.95;;;;;;;;;;5089490;28;20193;-77
2022/06/16 06:42:11;;;;;;;4.53;3.47;;;;;;;;;;5089655;28;20832;-76
2022/06/16 06:44:39;;;;;;;3.95;2.80;;;;;;;;;;5087235;28;20297;-76
2022/06/16 06:47:07;;;;;;;3.92;3.10;;;;;;;;;;5089660;28;20205;-76
2022/06/16 06:49:34;;;;;;;5.45;3.63;;;;;;;;;;5090279;28;20711;-76
2022/06/16 06:52:01;;;;;;;4.85;3.28;;;;;;;;;;5090099;28;20229;-76
2022/06/16 06:54:35;;;;;;;3.20;2.90;;;;;;;;;;5089688;28;20649;-75
2022/06/16 06:57:02;;;;;;;6.68;3.33;;;;;;;;;;5090098;28;20258;-76
2022/06/16 06:59:30;;;;;;;4.13;3.20;;;;;;;;;;5089600;28;20201;-74
2022/06/16 07:02:04;;;;;;;3.47;3.17;;;;;;;;;;5068636;28;20807;-76
2022/06/16 07:04:31;;;;;;;4.65;3.05;;;;;;;;;;5069399;28;20198;-77
2022/06/16 07:06:59;;;;;;;4.15;3.00;;;;;;;;;;5075902;28;20245;-75
2022/06/16 07:09:26;;;;;;;4.28;2.75;;;;;;;;;;5089793;28;20243;-76
2022/06/16 07:11:53;;;;;;;5.85;3.30;;;;;;;;;;5089167;28;20208;-76
2022/06/16 07:14:21;;;;;;;5.47;3.38;;;;;;;;;;5088835;28;20569;-76
2022/06/16 07:16:49;;;;;;;3.70;3.03;;;;;;;;;;5088821;28;20652;-74
2022/06/16 07:19:17;;;;;;;3.83;3.15;;;;;;;;;;5089546;28;20197;-74
2022/06/16 07:21:44;;;;;;;4.55;3.67;;;;;;;;;;5089111;28;20227;-74
2022/06/16 07:24:12;;;;;;;3.65;3.00;;;;;;;;;;5088382;28;20232;-75
2022/06/16 07:26:39;;;;;;;4.30;3.17;;;;;;;;;;5088058;28;20237;-77
2022/06/16 07:29:06;;;;;;;3.42;2.75;;;;;;;;;;5089068;28;20269;-75
2022/06/16 07:31:34;;;;;;;4.75;3.22;;;;;;;;;;5089194;28;20201;-75
2022/06/16 07:34:03;;;;;;;3.50;3.00;;;;;;;;;;5086700;28;20779;-76
2022/06/16 07:36:30;;;;;;;4.88;2.92;;;;;;;;;;5070596;28;20226;-75
2022/06/16 07:38:57;;;;;;;4.68;2.80;;;;;;;;;;5088271;28;20196;-74
2022/06/16 07:41:37;;;;;;;4.03;2.92;;;;;;;;;;5088240;28;20200;-76
2022/06/16 07:44:08;;;;;;;3.72;3.28;;;;;;;;;;5087991;28;20220;-76
2022/06/16 07:46:36;;;;;;;6.25;3.20;;;;;;;;;;5087916;28;20262;-75
2022/06/16 07:49:04;;;;;;;4.25;2.95;;;;;;;;;;5088062;28;20587;-76
2022/06/16 07:51:31;;;;;;;3.50;3.20;;;;;;;;;;5081178;28;20500;-75
2022/06/16 07:53:59;;;;;;;4.50;2.90;;;;;;;;;;5067303;28;21043;-75
2022/06/16 07:56:27;;;;;;;3.55;2.53;;;;;;;;;;5067469;28;20274;-75
2022/06/16 07:58:54;;;;;;;3.80;2.42;;;;;;;;;;5067620;28;20205;-75
2022/06/16 08:01:22;;;;;;;3.72;2.58;;;;;;;;;;5066400;28;20202;-75
2022/06/16 08:03:49;;;;;;;4.75;2.63;;;;;;;;;;5067361;28;20221;-75
2022/06/16 08:06:18;;;;;;;2.80;2.60;;;;;;;;;;5068135;28;20231;-74
2022/06/16 08:08:46;;;;;;;3.38;2.30;;;;;;;;;;5086067;28;20216;-74
2022/06/16 08:14:00;;;;;;;5.32;3.40;;;;;;;;;;5087481;28;20229;-74
2022/06/16 08:16:33;;;;;;;5.35;3.97;;;;;;;;;;5087805;28;20212;-75
2022/06/16 08:19:01;;;;;;;4.50;2.80;;;;;;;;;;5087869;28;20207;-75
2022/06/16 08:21:28;;;;;;;3.03;2.72;;;;;;;;;;5087996;28;20208;-75
2022/06/16 08:23:56;;;;;;;3.45;2.45;;;;;;;;;;5086875;28;20225;-76
2022/06/16 08:26:24;;;;;;;4.43;2.88;;;;;;;;;;5085789;28;20200;-74
2022/06/16 08:28:52;;;;;;;3.25;2.95;;;;;;;;;;5088051;28;20209;-74
2022/06/16 08:31:21;;;;;;;2.55;2.35;;;;;;;;;;5087377;28;20212;-76
2022/06/16 08:33:49;;;;;;;3.35;2.90;;;;;;;;;;5087125;28;20597;-74
2022/06/16 08:36:17;;;;;;;3.28;2.50;;;;;;;;;;5068901;28;20224;-76
2022/06/16 08:38:44;;;;;;;5.00;2.72;;;;;;;;;;5086911;28;20231;-75
2022/06/16 08:41:15;;;;;;;2.88;2.45;;;;;;;;;;5087566;28;20200;-76
2022/06/16 08:43:47;;;;;;;3.45;2.67;;;;;;;;;;5070368;28;20233;-76
2022/06/16 08:46:16;;;;;;;3.40;2.50;;;;;;;;;;5050068;28;20208;-76
2022/06/16 08:48:58;;;;;;;4.47;2.55;;;;;;;;;;5067770;28;20247;-76
2022/06/16 08:51:33;;;;;;;6.97;3.03;;;;;;;;;;5067576;28;20223;-75
2022/06/16 08:54:03;;;;;;;6.00;3.22;;;;;;;;;;5066462;28;20272;-76
2022/06/16 08:56:34;;;;;;;7.15;4.30;;;;;;;;;;5066764;28;20217;-76
2022/06/16 08:59:17;;;;;;;5.63;3.53;;;;;;;;;;5067018;28;20220;-75
2022/06/16 09:01:52;;;;;;;4.55;2.92;;;;;;;;;;5067260;28;20259;-76
2022/06/16 09:04:23;;;;;;;6.93;5.32;;;;;;;;;;5066764;28;20467;-77
2022/06/16 09:07:11;;;;;;;8.00;5.20;;;;;;;;;;5072490;28;20251;-77
2022/06/16 09:10:16;;;;;;;4.03;2.95;;;;;;;;;;5072375;28;20196;-76
2022/06/16 09:12:58;;;;;;;5.60;3.75;;;;;;;;;;5091072;28;20232;-75
2022/06/16 09:15:44;;;;;;;9.68;4.72;;;;;;;;;;5091676;28;20204;-75
2022/06/16 09:18:24;;;;;;;3.08;2.88;;;;;;;;;;5091302;28;20215;-76
2022/06/16 09:21:02;;;;;;;7.25;3.58;;;;;;;;;;5091414;28;20209;-75
2022/06/16 09:23:48;;;;;;;3.92;2.80;;;;;;;;;;5071698;28;20232;-76
2022/06/16 09:26:28;;;;;;;5.63;3.50;;;;;;;;;;5088966;28;20627;-75
2022/06/16 09:29:00;;;;;;;2.97;2.67;;;;;;;;;;5091064;28;20204;-75
2022/06/16 09:31:32;;;;;;;4.55;2.92;;;;;;;;;;5091497;28;20201;-74
2022/06/16 09:34:04;;;;;;;4.15;2.92;;;;;;;;;;5079310;28;20233;-77
2022/06/16 09:36:34;;;;;;;4.68;2.85;;;;;;;;;;5072907;28;20431;-76
2022/06/16 09:39:06;;;;;;;3.25;2.95;;;;;;;;;;5090813;28;20209;-75
2022/06/16 09:44:59;;;;;;;4.22;3.05;;;;;;;;;;5090505;28;20321;-74
2022/06/16 09:47:31;;;;;;;5.50;3.13;;;;;;;;;;5091353;28;20208;-75
2022/06/16 09:50:13;;;;;;;7.65;3.13;;;;;;;;;;5089228;28;20690;-75
2022/06/16 09:52:49;;;;;;;4.13;3.10;;;;;;;;;;5070201;28;20237;-74
2022/06/16 09:55:22;;;;;;;5.35;3.05;;;;;;;;;;5070870;28;20216;-74
2022/06/16 09:57:53;;;;;;;4.30;3.42;;;;;;;;;;5070720;28;20229;-76
2022/06/16 10:00:22;;;;;;;5.80;3.10;;;;;;;;;;5070473;28;20338;-75
2022/06/16 10:02:54;;;;;;;4.50;3.00;;;;;;;;;;5068581;28;20670;-74
2022/06/16 10:05:37;;;;;;;3.90;2.95;;;;;;;;;;5070151;28;20210;-76
2022/06/16 10:08:24;;;;;;;3.22;2.90;;;;;;;;;;5083989;28;20208;-76
2022/06/16 10:10:59;;;;;;;4.60;3.00;;;;;;;;;;5090255;28;20345;-73
2022/06/16 10:13:37;;;;;;;4.88;2.92;;;;;;;;;;5089411;28;20696;-75
2022/06/16 10:16:13;;;;;;;3.78;3.08;;;;;;;;;;5090372;28;20253;-73
2022/06/16 10:18:41;;;;;;;4.47;3.10;;;;;;;;;;5090820;28;20200;-75
2022/06/16 10:21:09;;;;;;;5.70;3.22;;;;;;;;;;5090968;28;20207;-76
2022/06/16 10:23:54;;;;;;;5.63;3.00;;;;;;;;;;5089393;28;20223;-76
2022/06/16 10:26:22;;;;;;;3.85;3.13;;;;;;;;;;5087235;28;20624;-75
2022/06/16 10:28:49;;;;;;;4.53;2.97;;;;;;;;;;5090980;28;20204;-76
2022/06/16 10:31:37;;;;;;;3.78;2.80;;;;;;;;;;5090851;28;20207;-75
2022/06/16 10:34:05;;;;;;;4.07;3.35;;;;;;;;;;5089633;28;20225;-75
2022/06/16 10:36:33;;;;;;;4.20;3.20;;;;;;;;;;5088746;28;20719;-74
2022/06/16 10:39:21;;;;;;;3.67;2.97;;;;;;;;;;5089562;28;20246;-76
2022/06/16 10:42:05;;;;;;;4.50;3.22;;;;;;;;;;5071842;28;20209;-75
2022/06/16 10:44:33;;;;;;;3.10;2.90;;;;;;;;;;5089315;28;20353;-75
2022/06/16 10:47:02;;;;;;;3.70;2.60;;;;;;;;;;5090312;28;20201;-77
2022/06/16 10:49:40;;;;;;;5.70;3.10;;;;;;;;;;5089908;28;20300;-76
2022/06/16 10:52:09;;;;;;;6.32;3.28;;;;;;;;;;5089913;28;20251;-76
2022/06/16 10:54:44;;;;;;;3.40;3.10;;;;;;;;;;5088932;28;20531;-75
2022/06/16 10:57:19;;;;;;;4.13;3.25;;;;;;;;;;5089223;28;20228;-76
2022/06/16 10:59:48;;;;;;;4.03;3.38;;;;;;;;;;5071405;28;20266;-76
2022/06/16 11:02:26;;;;;;;3.22;2.92;;;;;;;;;;5088761;28;20399;-76
2022/06/16 11:05:13;;;;;;;4.22;2.92;;;;;;;;;;5088610;28;20200;-75
2022/06/16 11:07:42;;;;;;;3.28;3.00;;;;;;;;;;5088885;28;20200;-76
2022/06/16 11:10:14;;;;;;;4.68;3.33;;;;;;;;;;5088614;28;20209;-76
2022/06/16 11:12:45;;;;;;;4.28;3.40;;;;;;;;;;5088912;28;20217;-75
2022/06/16 11:15:21;;;;;;;3.95;3.30;;;;;;;;;;5084568;28;20214;-76
2022/06/16 11:17:50;;;;;;;3.85;3.15;;;;;;;;;;5068579;28;20768;-76
2022/06/16 11:20:37;;;;;;;4.10;3.28;;;;;;;;;;5069057;28;20209;-75
2022/06/16 11:23:22;;;;;;;3.72;3.38;;;;;;;;;;5067935;28;20270;-75
2022/06/16 11:26:01;;;;;;;5.35;3.05;;;;;;;;;;5083671;28;20201;-76
2022/06/16 11:28:29;;;;;;;4.25;3.58;;;;;;;;;;5068334;28;20208;-76
2022/06/16 11:31:01;;;;;;;4.75;3.53;;;;;;;;;;5068113;28;20210;-76
2022/06/16 11:34:07;;;;;;;3.55;3.22;;;;;;;;;;5067532;28;20229;-75
2022/06/16 11:36:53;;;;;;;4.32;3.60;;;;;;;;;;5070912;28;20662;-76
2022/06/16 11:39:27;;;;;;;5.38;4.13;;;;;;;;;;5088386;28;20189;-76
2022/06/16 11:41:55;;;;;;;3.45;3.15;;;;;;;;;;5088418;28;20251;-76
2022/06/16 11:44:42;;;;;;;3.78;3.40;;;;;;;;;;5088049;28;20628;-76
2022/06/16 11:47:15;;;;;;;4.60;3.55;;;;;;;;;;5088425;28;20205;-76
2022/06/16 11:49:50;;;;;;;6.20;3.47;;;;;;;;;;5088013;28;20204;-75
2022/06/16 11:52:27;;;;;;;4.68;3.75;;;;;;;;;;5070445;28;20229;-74
2022/06/16 11:55:03;;;;;;;3.65;2.75;;;;;;;;;;5088471;28;20670;-72
2022/06/16 11:57:41;;;;;;;7.53;3.83;;;;;;;;;;5088502;28;20252;-76
2022/06/16 12:00:18;;;;;;;7.32;5.45;;;;;;;;;;5088869;28;20200;-76
2022/06/16 12:02:51;;;;;;;4.07;3.40;;;;;;;;;;5086708;28;20219;-77
2022/06/16 12:05:37;;;;;;;4.75;3.33;;;;;;;;;;5088583;28;20209;-77
2022/06/16 12:08:11;;;;;;;5.07;3.28;;;;;;;;;;5083394;28;20213;-76
2022/06/16 12:10:52;;;;;;;5.75;3.42;;;;;;;;;;5087787;28;20193;-76
2022/06/16 12:13:25;;;;;;;4.55;3.05;;;;;;;;;;5069778;28;20757;-76
2022/06/16 12:15:55;;;;;;;5.00;3.35;;;;;;;;;;5087988;28;20205;-75
2022/06/16 12:18:26;;;;;;;4.00;3.60;;;;;;;;;;5069757;28;20229;-76
2022/06/16 12:20:58;;;;;;;3.45;2.75;;;;;;;;;;5087925;28;20200;-75
2022/06/16 12:23:40;;;;;;;6.32;3.10;;;;;;;;;;5083893;28;20221;-76
2022/06/16 12:26:19;;;;;;;6.05;3.13;;;;;;;;;;5084541;28;20193;-75
2022/06/16 12:28:52;;;;;;;3.50;3.15;;;;;;;;;;5087815;28;20567;-74
2022/06/16 12:31:38;;;;;;;4.13;3.10;;;;;;;;;;5088016;28;20640;-75
2022/06/16 12:34:28;;;;;;;3.30;2.78;;;;;;;;;;5087252;28;20398;-76
2022/06/16 12:36:57;;;;;;;4.65;3.05;;;;;;;;;;5068977;28;20398;-76
2022/06/16 12:39:30;;;;;;;3.22;2.85;;;;;;;;;;5087571;28;20197;-75
2022/06/16 12:42:00;;;;;;;4.82;3.45;;;;;;;;;;5068501;28;20675;-75
2022/06/16 12:44:35;;;;;;;6.35;4.45;;;;;;;;;;5067417;28;20201;-75
2022/06/16 12:47:23;;;;;;;4.90;2.70;;;;;;;;;;5049568;28;20209;-75
2022/06/16 12:49:50;;;;;;;3.70;3.30;;;;;;;;;;5067972;28;20347;-75
2022/06/16 12:52:30;;;;;;;2.63;2.40;;;;;;;;;;5067148;28;20221;-76
2022/06/16 12:55:00;;;;;;;8.65;3.03;;;;;;;;;;5067278;28;20213;-76
2022/06/16 12:57:37;;;;;;;4.78;3.00;;;;;;;;;;5067156;28;20282;-74
2022/06/16 13:00:10;;;;;;;3.25;2.80;;;;;;;;;;5067768;28;20667;-74
2022/06/16 13:02:40;;;;;;;5.20;2.90;;;;;;;;;;5048157;28;20232;-76
2022/06/16 13:05:10;;;;;;;6.68;5.30;;;;;;;;;;5067599;28;20567;-74
2022/06/16 13:07:41;;;;;;;4.10;3.10;;;;;;;;;;5079426;28;20201;-76
2022/06/16 13:10:09;;;;;;;5.32;3.08;;;;;;;;;;5087515;28;20204;-75
2022/06/16 13:12:43;;;;;;;6.00;2.83;;;;;;;;;;5087613;28;20628;-76
2022/06/16 13:15:15;;;;;;;6.68;3.03;;;;;;;;;;5075023;28;20212;-75
2022/06/16 13:17:48;;;;;;;3.60;2.95;;;;;;;;;;5067194;28;20687;-75
2022/06/16 13:20:17;;;;;;;4.97;2.90;;;;;;;;;;5067227;28;20208;-75
2022/06/16 13:22:49;;;;;;;4.07;2.90;;;;;;;;;;5067002;28;20225;-75
2022/06/16 13:25:36;;;;;;;6.07;3.20;;;;;;;;;;5086923;28;20216;-76
2022/06/16 13:28:06;;;;;;;4.40;3.03;;;;;;;;;;5067462;28;20213;-76
2022/06/16 13:30:33;;;;;;;3.17;2.88;;;;;;;;;;5067568;28;20627;-76
2022/06/16 13:33:00;;;;;;;5.05;2.85;;;;;;;;;;5066298;28;20229;-76
2022/06/16 13:35:33;;;;;;;6.07;2.88;;;;;;;;;;5066687;28;20209;-74
2022/06/16 13:38:03;;;;;;;6.07;3.10;;;;;;;;;;5081507;28;20224;-74
2022/06/16 13:40:32;;;;;;;4.28;3.08;;;;;;;;;;5087037;28;20199;-75
2022/06/16 13:42:59;;;;;;;3.40;2.88;;;;;;;;;;5086568;28;20221;-75
2022/06/16 13:45:29;;;;;;;4.80;2.80;;;;;;;;;;5087473;28;20201;-76
2022/06/16 13:48:08;;;;;;;3.05;2.80;;;;;;;;;;5085732;28;20204;-75
2022/06/16 13:50:45;;;;;;;4.88;2.80;;;;;;;;;;5067155;28;20462;-76
2022/06/16 13:53:14;;;;;;;3.75;2.65;;;;;;;;;;5066964;28;20239;-76
2022/06/16 13:55:46;;;;;;;2.95;2.65;;;;;;;;;;5052739;28;20235;-76
2022/06/16 13:58:22;;;;;;;4.30;2.80;;;;;;;;;;5070371;28;20632;-76
2022/06/16 14:01:02;;;;;;;4.57;2.17;;;;;;;;;;5052942;28;20232;-76
2022/06/16 14:03:30;;;;;;;3.35;2.40;;;;;;;;;;5052994;28;20232;-75
2022/06/16 14:06:03;;;;;;;4.07;2.60;;;;;;;;;;5071114;28;20255;-75
2022/06/16 14:08:31;;;;;;;3.22;2.67;;;;;;;;;;5089474;28;20201;-76
2022/06/16 14:11:16;;;;;;;6.65;4.28;;;;;;;;;;5090291;28;20230;-76
2022/06/16 14:14:06;;;;;;;11.90;6.70;;;;;;;;;;5089902;28;20698;-76
2022/06/16 14:16:36;;;;;;;3.60;2.63;;;;;;;;;;5090721;28;20217;-76
2022/06/16 14:19:12;;;;;;;3.17;2.60;;;;;;;;;;5090050;28;20287;-76
2022/06/16 14:21:46;;;;;;;4.82;2.95;;;;;;;;;;5090543;28;20473;-76
2022/06/16 14:24:32;;;;;;;3.13;2.80;;;;;;;;;;5087781;28;20200;-76
2022/06/16 14:26:59;;;;;;;8.70;2.67;;;;;;;;;;5087244;28;20352;-76
2022/06/16 14:29:28;;;;;;;4.60;2.65;;;;;;;;;;5090081;28;20200;-76
2022/06/16 14:32:04;;;;;;;3.85;3.10;;;;;;;;;;5090145;28;20679;-75
2022/06/16 14:34:51;;;;;;;3.17;2.60;;;;;;;;;;5089592;28;20213;-76
2022/06/16 14:37:21;;;;;;;4.63;2.70;;;;;;;;;;5089587;28;20251;-76
2022/06/16 14:39:57;;;;;;;7.10;2.55;;;;;;;;;;5087903;28;20201;-76
2022/06/16 14:42:28;;;;;;;3.53;2.28;;;;;;;;;;5089688;28;20223;-76
2022/06/16 14:45:01;;;;;;;3.33;2.80;;;;;;;;;;5089686;28;20690;-75
2022/06/16 14:47:31;;;;;;;5.03;3.05;;;;;;;;;;5089383;28;20209;-76
2022/06/16 14:50:21;;;;;;;4.05;2.80;;;;;;;;;;5090088;28;20204;-76
2022/06/16 14:52:55;;;;;;;4.63;2.80;;;;;;;;;;5071245;28;20280;-76
2022/06/16 14:55:29;;;;;;;4.38;2.75;;;;;;;;;;5089861;28;20573;-75
2022/06/16 14:57:56;;;;;;;4.25;3.25;;;;;;;;;;5070823;28;20264;-74
2022/06/16 15:00:25;;;;;;;5.22;2.80;;;;;;;;;;5069468;28;20205;-76
2022/06/16 15:02:57;;;;;;;9.27;6.10;;;;;;;;;;5066881;28;20225;-75
2022/06/16 15:05:26;;;;;;;5.00;2.78;;;;;;;;;;5051033;28;20391;-76
2022/06/16 15:07:53;;;;;;;4.05;2.40;;;;;;;;;;5083159;28;20208;-76
2022/06/16 15:10:25;;;;;;;3.05;2.50;;;;;;;;;;5089659;28;20205;-75
2022/06/16 15:12:52;;;;;;;10.70;5.82;;;;;;;;;;5088390;28;20275;-74
2022/06/16 15:15:22;;;;;;;8.10;3.78;;;;;;;;;;5089123;28;20627;-76
2022/06/16 15:20:37;;;;;;;4.60;2.50;;;;;;;;;;5089090;28;20212;-76
2022/06/16 15:23:05;;;;;;;4.82;2.50;;;;;;;;;;5087391;28;20224;-76
2022/06/16 15:25:41;;;;;;;6.70;2.58;;;;;;;;;;5088416;28;20611;-76
2022/06/16 15:28:10;;;;;;;6.00;2.58;;;;;;;;;;5068179;28;20720;-76
2022/06/16 15:30:44;;;;;;;2.65;2.40;;;;;;;;;;5077051;28;20204;-74
2022/06/16 15:36:09;;;;;;;5.85;2.63;;;;;;;;;;5088586;28;20570;-77
2022/06/16 15:38:37;;;;;;;5.65;2.97;;;;;;;;;;5088620;28;20709;-75
2022/06/16 15:41:18;;;;;;;3.20;2.35;;;;;;;;;;5088596;28;20201;-76